sensor_id;sensor_type;location;lat;lon;timestamp;P1;durP1;ratioP1;P2;durP2;ratioP2
72413;SDS011;60995;52.154;4.498;2023-04-01T00:00:41;121.85;;;15.65;;
72413;SDS011;60995;52.154;4.498;2023-04-01T00:03:01;138.60;;;17.42;;
72413;SDS011;60995;52.154;4.498;2023-04-01T00:05:17;123.38;;;17.48;;
72413;SDS011;60995;52.154;4.498;2023-04-01T00:07:34;113.20;;;17.30;;
72413;SDS011;60995;52.154;4.498;2023-04-01T00:09:50;131.82;;;17.73;;
72413;SDS011;60995;52.154;4.498;2023-04-01T00:12:07;124.20;;;18.08;;
72413;SDS011;60995;52.154;4.498;2023-04-01T00:14:23;120.25;;;17.63;;
72413;SDS011;60995;52.154;4.498;2023-04-01T00:16:39;127.43;;;16.63;;
72413;SDS011;60995;52.154;4.498;2023-04-01T00:18:56;122.40;;;18.45;;
72413;SDS011;60995;52.154;4.498;2023-04-01T00:21:12;127.80;;;19.70;;
72413;SDS011;60995;52.154;4.498;2023-04-01T00:23:29;122.25;;;18.33;;
72413;SDS011;60995;52.154;4.498;2023-04-01T00:25:45;123.88;;;19.80;;
72413;SDS011;60995;52.154;4.498;2023-04-01T00:28:03;117.15;;;16.85;;
72413;SDS011;60995;52.154;4.498;2023-04-01T00:30:20;121.53;;;17.05;;
72413;SDS011;60995;52.154;4.498;2023-04-01T00:32:36;95.53;;;14.88;;
72413;SDS011;60995;52.154;4.498;2023-04-01T00:34:52;126.75;;;24.80;;
72413;SDS011;60995;52.154;4.498;2023-04-01T00:37:09;95.38;;;16.05;;
72413;SDS011;60995;52.154;4.498;2023-04-01T00:39:25;98.18;;;14.95;;
72413;SDS011;60995;52.154;4.498;2023-04-01T00:41:45;76.28;;;11.35;;
72413;SDS011;60995;52.154;4.498;2023-04-01T00:44:20;96.10;;;14.27;;
72413;SDS011;60995;52.154;4.498;2023-04-01T00:46:40;81.18;;;13.82;;
72413;SDS011;60995;52.154;4.498;2023-04-01T00:48:56;80.38;;;14.10;;
72413;SDS011;60995;52.154;4.498;2023-04-01T00:51:17;79.05;;;12.10;;
72413;SDS011;60995;52.154;4.498;2023-04-01T00:53:40;72.03;;;12.98;;
72413;SDS011;60995;52.154;4.498;2023-04-01T00:56:03;71.70;;;11.13;;
72413;SDS011;60995;52.154;4.498;2023-04-01T00:58:27;56.47;;;10.18;;
72413;SDS011;60995;52.154;4.498;2023-04-01T01:00:50;52.55;;;10.43;;
72413;SDS011;60995;52.154;4.498;2023-04-01T01:03:08;56.85;;;11.30;;
72413;SDS011;60995;52.154;4.498;2023-04-01T01:05:29;50.75;;;10.90;;
72413;SDS011;60995;52.154;4.498;2023-04-01T01:08:15;59.30;;;11.85;;
72413;SDS011;60995;52.154;4.498;2023-04-01T01:10:59;53.10;;;10.18;;
72413;SDS011;60995;52.154;4.498;2023-04-01T01:13:26;47.85;;;10.30;;
72413;SDS011;60995;52.154;4.498;2023-04-01T01:16:26;41.83;;;10.43;;
72413;SDS011;60995;52.154;4.498;2023-04-01T01:19:00;40.58;;;11.88;;
72413;SDS011;60995;52.154;4.498;2023-04-01T01:22:20;56.13;;;11.85;;
72413;SDS011;60995;52.154;4.498;2023-04-01T01:25:15;55.35;;;11.15;;
72413;SDS011;60995;52.154;4.498;2023-04-01T01:27:42;67.40;;;12.98;;
72413;SDS011;60995;52.154;4.498;2023-04-01T01:36:08;66.18;;;12.48;;
72413;SDS011;60995;52.154;4.498;2023-04-01T01:38:31;52.78;;;12.43;;
72413;SDS011;60995;52.154;4.498;2023-04-01T01:40:51;65.25;;;13.82;;
72413;SDS011;60995;52.154;4.498;2023-04-01T01:43:14;53.75;;;13.73;;
72413;SDS011;60995;52.154;4.498;2023-04-01T01:45:39;61.53;;;14.27;;
72413;SDS011;60995;52.154;4.498;2023-04-01T01:48:02;67.65;;;13.45;;
72413;SDS011;60995;52.154;4.498;2023-04-01T01:50:22;68.93;;;16.92;;
72413;SDS011;60995;52.154;4.498;2023-04-01T01:52:44;73.72;;;14.02;;
72413;SDS011;60995;52.154;4.498;2023-04-01T01:57:45;72.78;;;18.35;;
72413;SDS011;60995;52.154;4.498;2023-04-01T02:00:03;52.45;;;13.20;;
72413;SDS011;60995;52.154;4.498;2023-04-01T02:02:33;60.08;;;13.45;;
72413;SDS011;60995;52.154;4.498;2023-04-01T02:04:50;53.55;;;12.32;;
72413;SDS011;60995;52.154;4.498;2023-04-01T02:07:10;61.10;;;14.13;;
72413;SDS011;60995;52.154;4.498;2023-04-01T02:09:35;45.17;;;12.13;;
72413;SDS011;60995;52.154;4.498;2023-04-01T02:11:55;47.78;;;11.77;;
72413;SDS011;60995;52.154;4.498;2023-04-01T02:14:17;57.25;;;13.65;;
72413;SDS011;60995;52.154;4.498;2023-04-01T02:19:13;75.55;;;16.20;;
72413;SDS011;60995;52.154;4.498;2023-04-01T02:21:38;67.38;;;16.75;;
72413;SDS011;60995;52.154;4.498;2023-04-01T02:23:58;70.10;;;17.92;;
72413;SDS011;60995;52.154;4.498;2023-04-01T02:26:20;65.13;;;19.83;;
72413;SDS011;60995;52.154;4.498;2023-04-01T02:28:38;86.15;;;18.80;;
72413;SDS011;60995;52.154;4.498;2023-04-01T02:30:57;78.07;;;21.90;;
72413;SDS011;60995;52.154;4.498;2023-04-01T02:33:16;87.82;;;21.67;;
72413;SDS011;60995;52.154;4.498;2023-04-01T02:35:35;75.75;;;22.88;;
72413;SDS011;60995;52.154;4.498;2023-04-01T02:37:55;91.50;;;23.08;;
72413;SDS011;60995;52.154;4.498;2023-04-01T02:40:12;77.43;;;22.70;;
72413;SDS011;60995;52.154;4.498;2023-04-01T02:42:30;84.30;;;23.08;;
72413;SDS011;60995;52.154;4.498;2023-04-01T02:44:47;78.63;;;23.13;;
72413;SDS011;60995;52.154;4.498;2023-04-01T02:47:03;67.00;;;21.33;;
72413;SDS011;60995;52.154;4.498;2023-04-01T02:49:19;71.25;;;21.55;;
72413;SDS011;60995;52.154;4.498;2023-04-01T02:51:36;73.13;;;19.90;;
72413;SDS011;60995;52.154;4.498;2023-04-01T02:53:52;58.45;;;19.67;;
72413;SDS011;60995;52.154;4.498;2023-04-01T02:56:09;60.28;;;19.77;;
72413;SDS011;60995;52.154;4.498;2023-04-01T02:58:25;66.22;;;20.02;;
72413;SDS011;60995;52.154;4.498;2023-04-01T03:00:41;42.00;;;15.15;;
72413;SDS011;60995;52.154;4.498;2023-04-01T03:02:58;46.47;;;15.77;;
72413;SDS011;60995;52.154;4.498;2023-04-01T03:05:14;49.17;;;15.73;;
72413;SDS011;60995;52.154;4.498;2023-04-01T03:07:31;47.38;;;16.35;;
72413;SDS011;60995;52.154;4.498;2023-04-01T03:09:47;48.78;;;16.42;;
72413;SDS011;60995;52.154;4.498;2023-04-01T03:12:04;62.25;;;18.50;;
72413;SDS011;60995;52.154;4.498;2023-04-01T03:14:21;65.63;;;18.70;;
72413;SDS011;60995;52.154;4.498;2023-04-01T03:16:37;68.28;;;18.52;;
72413;SDS011;60995;52.154;4.498;2023-04-01T03:18:54;62.30;;;18.02;;
72413;SDS011;60995;52.154;4.498;2023-04-01T03:23:34;44.53;;;14.32;;
72413;SDS011;60995;52.154;4.498;2023-04-01T03:25:50;37.53;;;13.35;;
72413;SDS011;60995;52.154;4.498;2023-04-01T03:28:07;37.28;;;12.57;;
72413;SDS011;60995;52.154;4.498;2023-04-01T03:30:23;39.00;;;13.18;;
72413;SDS011;60995;52.154;4.498;2023-04-01T03:32:39;42.72;;;13.88;;
72413;SDS011;60995;52.154;4.498;2023-04-01T03:34:55;38.05;;;13.77;;
72413;SDS011;60995;52.154;4.498;2023-04-01T03:37:12;45.90;;;15.35;;
72413;SDS011;60995;52.154;4.498;2023-04-01T03:39:30;52.38;;;17.02;;
72413;SDS011;60995;52.154;4.498;2023-04-01T03:41:46;51.83;;;18.08;;
72413;SDS011;60995;52.154;4.498;2023-04-01T03:44:03;58.38;;;17.38;;
72413;SDS011;60995;52.154;4.498;2023-04-01T03:46:19;57.67;;;17.90;;
72413;SDS011;60995;52.154;4.498;2023-04-01T03:48:36;65.82;;;20.20;;
72413;SDS011;60995;52.154;4.498;2023-04-01T03:50:53;70.43;;;20.13;;
72413;SDS011;60995;52.154;4.498;2023-04-01T03:53:09;72.30;;;21.85;;
72413;SDS011;60995;52.154;4.498;2023-04-01T03:55:26;66.30;;;21.00;;
72413;SDS011;60995;52.154;4.498;2023-04-01T03:57:42;59.45;;;19.63;;
72413;SDS011;60995;52.154;4.498;2023-04-01T03:59:58;57.35;;;20.08;;
72413;SDS011;60995;52.154;4.498;2023-04-01T04:02:14;52.65;;;19.05;;
72413;SDS011;60995;52.154;4.498;2023-04-01T04:04:31;52.20;;;19.13;;
72413;SDS011;60995;52.154;4.498;2023-04-01T04:06:47;51.60;;;20.23;;
72413;SDS011;60995;52.154;4.498;2023-04-01T04:09:04;59.03;;;19.90;;
72413;SDS011;60995;52.154;4.498;2023-04-01T04:11:21;57.42;;;19.50;;
72413;SDS011;60995;52.154;4.498;2023-04-01T04:13:38;53.20;;;19.95;;
72413;SDS011;60995;52.154;4.498;2023-04-01T04:15:54;58.78;;;20.27;;
72413;SDS011;60995;52.154;4.498;2023-04-01T04:18:11;52.83;;;21.15;;
72413;SDS011;60995;52.154;4.498;2023-04-01T04:20:27;58.90;;;21.52;;
72413;SDS011;60995;52.154;4.498;2023-04-01T04:22:43;58.92;;;22.13;;
72413;SDS011;60995;52.154;4.498;2023-04-01T04:24:59;55.92;;;21.98;;
72413;SDS011;60995;52.154;4.498;2023-04-01T04:27:16;53.80;;;21.17;;
72413;SDS011;60995;52.154;4.498;2023-04-01T04:29:32;62.80;;;24.13;;
72413;SDS011;60995;52.154;4.498;2023-04-01T04:31:49;63.40;;;23.65;;
72413;SDS011;60995;52.154;4.498;2023-04-01T04:34:05;63.95;;;21.17;;
72413;SDS011;60995;52.154;4.498;2023-04-01T04:36:21;65.68;;;24.23;;
72413;SDS011;60995;52.154;4.498;2023-04-01T04:38:37;54.60;;;20.13;;
72413;SDS011;60995;52.154;4.498;2023-04-01T04:40:54;61.58;;;21.27;;
72413;SDS011;60995;52.154;4.498;2023-04-01T04:43:11;56.88;;;20.73;;
72413;SDS011;60995;52.154;4.498;2023-04-01T04:45:30;52.83;;;20.58;;
72413;SDS011;60995;52.154;4.498;2023-04-01T04:47:46;59.15;;;21.40;;
72413;SDS011;60995;52.154;4.498;2023-04-01T04:50:03;58.90;;;20.13;;
72413;SDS011;60995;52.154;4.498;2023-04-01T04:52:20;62.70;;;21.55;;
72413;SDS011;60995;52.154;4.498;2023-04-01T04:54:36;63.15;;;19.27;;
72413;SDS011;60995;52.154;4.498;2023-04-01T04:56:52;60.30;;;20.15;;
72413;SDS011;60995;52.154;4.498;2023-04-01T04:59:09;71.95;;;21.27;;
72413;SDS011;60995;52.154;4.498;2023-04-01T05:01:25;72.97;;;22.13;;
72413;SDS011;60995;52.154;4.498;2023-04-01T05:03:42;72.30;;;22.70;;
72413;SDS011;60995;52.154;4.498;2023-04-01T05:05:59;71.80;;;21.38;;
72413;SDS011;60995;52.154;4.498;2023-04-01T05:08:15;71.05;;;20.20;;
72413;SDS011;60995;52.154;4.498;2023-04-01T05:10:31;85.40;;;23.70;;
72413;SDS011;60995;52.154;4.498;2023-04-01T05:12:47;65.82;;;19.23;;
72413;SDS011;60995;52.154;4.498;2023-04-01T05:15:05;83.00;;;24.60;;
72413;SDS011;60995;52.154;4.498;2023-04-01T05:17:22;81.63;;;22.85;;
72413;SDS011;60995;52.154;4.498;2023-04-01T05:19:38;78.00;;;20.88;;
72413;SDS011;60995;52.154;4.498;2023-04-01T05:21:55;69.63;;;20.77;;
72413;SDS011;60995;52.154;4.498;2023-04-01T05:24:11;66.82;;;20.05;;
72413;SDS011;60995;52.154;4.498;2023-04-01T05:26:27;73.75;;;20.67;;
72413;SDS011;60995;52.154;4.498;2023-04-01T05:28:44;74.35;;;21.40;;
72413;SDS011;60995;52.154;4.498;2023-04-01T05:31:01;64.13;;;19.10;;
72413;SDS011;60995;52.154;4.498;2023-04-01T05:33:19;68.00;;;20.45;;
72413;SDS011;60995;52.154;4.498;2023-04-01T05:35:35;65.07;;;19.92;;
72413;SDS011;60995;52.154;4.498;2023-04-01T05:37:51;80.38;;;22.25;;
72413;SDS011;60995;52.154;4.498;2023-04-01T05:40:08;122.80;;;19.50;;
72413;SDS011;60995;52.154;4.498;2023-04-01T05:42:25;68.35;;;22.15;;
72413;SDS011;60995;52.154;4.498;2023-04-01T05:44:42;66.40;;;19.48;;
72413;SDS011;60995;52.154;4.498;2023-04-01T05:46:58;65.40;;;21.95;;
72413;SDS011;60995;52.154;4.498;2023-04-01T05:49:14;63.63;;;22.60;;
72413;SDS011;60995;52.154;4.498;2023-04-01T05:51:30;77.00;;;23.40;;
72413;SDS011;60995;52.154;4.498;2023-04-01T05:53:47;69.28;;;23.98;;
72413;SDS011;60995;52.154;4.498;2023-04-01T05:56:03;78.63;;;25.98;;
72413;SDS011;60995;52.154;4.498;2023-04-01T05:58:20;71.00;;;25.15;;
72413;SDS011;60995;52.154;4.498;2023-04-01T06:00:37;73.05;;;23.50;;
72413;SDS011;60995;52.154;4.498;2023-04-01T06:02:54;78.18;;;22.23;;
72413;SDS011;60995;52.154;4.498;2023-04-01T06:07:34;70.85;;;22.00;;
72413;SDS011;60995;52.154;4.498;2023-04-01T06:09:50;79.00;;;21.67;;
72413;SDS011;60995;52.154;4.498;2023-04-01T06:23:12;76.15;;;23.60;;
72413;SDS011;60995;52.154;4.498;2023-04-01T06:36:51;119.40;;;25.45;;
72413;SDS011;60995;52.154;4.498;2023-04-01T06:57:52;65.20;;;24.27;;
72413;SDS011;60995;52.154;4.498;2023-04-01T07:00:14;71.10;;;21.33;;
72413;SDS011;60995;52.154;4.498;2023-04-01T07:02:41;86.10;;;20.10;;
72413;SDS011;60995;52.154;4.498;2023-04-01T07:05:23;76.97;;;20.10;;
72413;SDS011;60995;52.154;4.498;2023-04-01T07:07:47;77.63;;;20.63;;
72413;SDS011;60995;52.154;4.498;2023-04-01T07:10:16;121.75;;;23.42;;
72413;SDS011;60995;52.154;4.498;2023-04-01T07:12:56;65.63;;;17.85;;
72413;SDS011;60995;52.154;4.498;2023-04-01T07:15:23;65.20;;;20.48;;
72413;SDS011;60995;52.154;4.498;2023-04-01T07:17:47;73.40;;;20.73;;
72413;SDS011;60995;52.154;4.498;2023-04-01T07:20:30;76.03;;;19.85;;
72413;SDS011;60995;52.154;4.498;2023-04-01T07:22:51;69.57;;;16.88;;
72413;SDS011;60995;52.154;4.498;2023-04-01T07:25:17;71.25;;;17.00;;
72413;SDS011;60995;52.154;4.498;2023-04-01T07:28:00;54.17;;;16.95;;
72413;SDS011;60995;52.154;4.498;2023-04-01T07:30:26;59.78;;;17.25;;
72413;SDS011;60995;52.154;4.498;2023-04-01T07:33:19;57.75;;;17.88;;
72413;SDS011;60995;52.154;4.498;2023-04-01T07:38:20;59.90;;;16.80;;
72413;SDS011;60995;52.154;4.498;2023-04-01T07:49:38;56.65;;;17.40;;
72413;SDS011;60995;52.154;4.498;2023-04-01T07:55:32;95.50;;;19.85;;
72413;SDS011;60995;52.154;4.498;2023-04-01T08:03:52;54.08;;;17.92;;
72413;SDS011;60995;52.154;4.498;2023-04-01T08:09:05;58.15;;;18.02;;
72413;SDS011;60995;52.154;4.498;2023-04-01T08:15:17;51.17;;;17.20;;
72413;SDS011;60995;52.154;4.498;2023-04-01T08:23:13;327.45;;;28.60;;
72413;SDS011;60995;52.154;4.498;2023-04-01T08:25:42;368.75;;;29.63;;
72413;SDS011;60995;52.154;4.498;2023-04-01T08:33:29;63.63;;;19.88;;
72413;SDS011;60995;52.154;4.498;2023-04-01T08:35:50;60.28;;;20.05;;
72413;SDS011;60995;52.154;4.498;2023-04-01T08:38:12;64.32;;;19.52;;
72413;SDS011;60995;52.154;4.498;2023-04-01T08:45:42;72.43;;;18.92;;
72413;SDS011;60995;52.154;4.498;2023-04-01T08:48:07;74.90;;;18.50;;
72413;SDS011;60995;52.154;4.498;2023-04-01T08:59:14;78.80;;;18.95;;
72413;SDS011;60995;52.154;4.498;2023-04-01T09:14:23;48.08;;;13.82;;
72413;SDS011;60995;52.154;4.498;2023-04-01T09:34:30;54.72;;;17.45;;
72413;SDS011;60995;52.154;4.498;2023-04-01T09:40:13;44.50;;;16.93;;
72413;SDS011;60995;52.154;4.498;2023-04-01T09:42:41;45.90;;;16.17;;
72413;SDS011;60995;52.154;4.498;2023-04-01T09:45:05;54.97;;;18.73;;
72413;SDS011;60995;52.154;4.498;2023-04-01T09:48:11;51.33;;;19.08;;
72413;SDS011;60995;52.154;4.498;2023-04-01T09:51:03;62.33;;;19.13;;
72413;SDS011;60995;52.154;4.498;2023-04-01T09:54:18;69.85;;;20.35;;
72413;SDS011;60995;52.154;4.498;2023-04-01T10:00:10;69.68;;;21.13;;
72413;SDS011;60995;52.154;4.498;2023-04-01T10:02:43;56.30;;;19.98;;
72413;SDS011;60995;52.154;4.498;2023-04-01T10:22:50;63.38;;;19.67;;
72413;SDS011;60995;52.154;4.498;2023-04-01T11:44:03;31.75;;;13.07;;
72413;SDS011;60995;52.154;4.498;2023-04-01T12:07:50;33.30;;;12.70;;
72413;SDS011;60995;52.154;4.498;2023-04-01T12:10:47;40.97;;;13.85;;
72413;SDS011;60995;52.154;4.498;2023-04-01T12:18:59;32.70;;;11.55;;
72413;SDS011;60995;52.154;4.498;2023-04-01T12:24:18;34.97;;;12.02;;
72413;SDS011;60995;52.154;4.498;2023-04-01T12:49:52;252.70;;;18.23;;
72413;SDS011;60995;52.154;4.498;2023-04-01T12:52:32;481.65;;;23.25;;
72413;SDS011;60995;52.154;4.498;2023-04-01T12:55:12;27.83;;;7.75;;
72413;SDS011;60995;52.154;4.498;2023-04-01T12:57:50;27.25;;;7.03;;
72413;SDS011;60995;52.154;4.498;2023-04-01T13:03:27;23.05;;;6.40;;
72413;SDS011;60995;52.154;4.498;2023-04-01T13:08:49;20.55;;;5.22;;
72413;SDS011;60995;52.154;4.498;2023-04-01T13:16:41;23.52;;;4.88;;
72413;SDS011;60995;52.154;4.498;2023-04-01T13:22:15;18.67;;;5.03;;
72413;SDS011;60995;52.154;4.498;2023-04-01T13:25:07;19.33;;;4.45;;
72413;SDS011;60995;52.154;4.498;2023-04-01T13:27:45;20.52;;;4.88;;
72413;SDS011;60995;52.154;4.498;2023-04-01T13:33:48;24.20;;;5.50;;
72413;SDS011;60995;52.154;4.498;2023-04-01T13:36:13;23.45;;;5.53;;
72413;SDS011;60995;52.154;4.498;2023-04-01T13:41:48;23.77;;;4.93;;
72413;SDS011;60995;52.154;4.498;2023-04-01T13:45:10;23.10;;;4.50;;
72413;SDS011;60995;52.154;4.498;2023-04-01T13:50:26;24.80;;;5.10;;
72413;SDS011;60995;52.154;4.498;2023-04-01T13:53:04;19.65;;;4.15;;
72413;SDS011;60995;52.154;4.498;2023-04-01T13:56:14;21.50;;;4.82;;
72413;SDS011;60995;52.154;4.498;2023-04-01T14:01:25;18.38;;;5.13;;
72413;SDS011;60995;52.154;4.498;2023-04-01T14:04:03;22.10;;;4.93;;
72413;SDS011;60995;52.154;4.498;2023-04-01T14:14:49;22.30;;;5.72;;
72413;SDS011;60995;52.154;4.498;2023-04-01T14:20:16;21.77;;;6.28;;
72413;SDS011;60995;52.154;4.498;2023-04-01T14:23:44;26.35;;;7.68;;
72413;SDS011;60995;52.154;4.498;2023-04-01T14:36:33;40.22;;;9.48;;
72413;SDS011;60995;52.154;4.498;2023-04-01T14:51:18;23.67;;;8.93;;
72413;SDS011;60995;52.154;4.498;2023-04-01T14:53:51;29.60;;;8.80;;
72413;SDS011;60995;52.154;4.498;2023-04-01T14:56:15;32.25;;;14.18;;
72413;SDS011;60995;52.154;4.498;2023-04-01T14:59:10;37.55;;;17.02;;
72413;SDS011;60995;52.154;4.498;2023-04-01T15:02:42;42.63;;;15.18;;
72413;SDS011;60995;52.154;4.498;2023-04-01T15:12:57;29.67;;;9.75;;
72413;SDS011;60995;52.154;4.498;2023-04-01T15:15:31;30.60;;;9.15;;
72413;SDS011;60995;52.154;4.498;2023-04-01T15:18:19;23.77;;;8.50;;
72413;SDS011;60995;52.154;4.498;2023-04-01T15:26:17;28.95;;;10.05;;
72413;SDS011;60995;52.154;4.498;2023-04-01T15:29:41;27.13;;;9.48;;
72413;SDS011;60995;52.154;4.498;2023-04-01T15:40:46;18.55;;;9.07;;
72413;SDS011;60995;52.154;4.498;2023-04-01T15:43:18;15.95;;;9.40;;
72413;SDS011;60995;52.154;4.498;2023-04-01T15:46:09;15.60;;;9.57;;
72413;SDS011;60995;52.154;4.498;2023-04-01T15:59:16;19.13;;;11.50;;
72413;SDS011;60995;52.154;4.498;2023-04-01T16:01:59;15.10;;;10.10;;
72413;SDS011;60995;52.154;4.498;2023-04-01T16:04:47;14.82;;;9.93;;
72413;SDS011;60995;52.154;4.498;2023-04-01T16:16:01;18.13;;;9.73;;
72413;SDS011;60995;52.154;4.498;2023-04-01T16:21:19;17.67;;;10.02;;
72413;SDS011;60995;52.154;4.498;2023-04-01T16:23:56;15.23;;;9.00;;
72413;SDS011;60995;52.154;4.498;2023-04-01T16:26:37;20.13;;;10.48;;
72413;SDS011;60995;52.154;4.498;2023-04-01T16:29:25;19.08;;;11.50;;
72413;SDS011;60995;52.154;4.498;2023-04-01T16:34:18;19.70;;;9.30;;
72413;SDS011;60995;52.154;4.498;2023-04-01T16:36:48;18.73;;;10.25;;
72413;SDS011;60995;52.154;4.498;2023-04-01T16:39:26;16.77;;;10.85;;
72413;SDS011;60995;52.154;4.498;2023-04-01T16:42:11;14.20;;;10.05;;
72413;SDS011;60995;52.154;4.498;2023-04-01T16:47:51;15.45;;;9.38;;
72413;SDS011;60995;52.154;4.498;2023-04-01T16:50:24;15.68;;;9.55;;
72413;SDS011;60995;52.154;4.498;2023-04-01T16:53:02;15.40;;;9.40;;
72413;SDS011;60995;52.154;4.498;2023-04-01T16:55:41;17.83;;;9.48;;
72413;SDS011;60995;52.154;4.498;2023-04-01T16:58:21;16.30;;;9.35;;
72413;SDS011;60995;52.154;4.498;2023-04-01T17:00:49;15.18;;;9.00;;
72413;SDS011;60995;52.154;4.498;2023-04-01T17:03:22;13.52;;;8.40;;
72413;SDS011;60995;52.154;4.498;2023-04-01T17:05:49;14.65;;;7.95;;
72413;SDS011;60995;52.154;4.498;2023-04-01T17:08:21;15.75;;;8.82;;
72413;SDS011;60995;52.154;4.498;2023-04-01T17:11:31;13.27;;;8.10;;
72413;SDS011;60995;52.154;4.498;2023-04-01T17:14:15;13.43;;;7.82;;
72413;SDS011;60995;52.154;4.498;2023-04-01T17:19:27;12.57;;;7.13;;
72413;SDS011;60995;52.154;4.498;2023-04-01T17:39:21;13.68;;;8.23;;
72413;SDS011;60995;52.154;4.498;2023-04-01T17:41:47;12.60;;;7.32;;
72413;SDS011;60995;52.154;4.498;2023-04-01T17:47:11;13.68;;;7.30;;
72413;SDS011;60995;52.154;4.498;2023-04-01T17:52:00;259.58;;;22.23;;
72413;SDS011;60995;52.154;4.498;2023-04-01T17:59:55;11.43;;;7.38;;
72413;SDS011;60995;52.154;4.498;2023-04-01T18:02:24;14.57;;;8.27;;
72413;SDS011;60995;52.154;4.498;2023-04-01T18:07:57;14.63;;;8.77;;
72413;SDS011;60995;52.154;4.498;2023-04-01T18:10:53;16.25;;;9.32;;
72413;SDS011;60995;52.154;4.498;2023-04-01T18:24:13;9.40;;;5.65;;
72413;SDS011;60995;52.154;4.498;2023-04-01T18:26:49;9.20;;;5.70;;
72413;SDS011;60995;52.154;4.498;2023-04-01T18:29:31;8.55;;;5.30;;
72413;SDS011;60995;52.154;4.498;2023-04-01T18:34:54;10.40;;;6.85;;
72413;SDS011;60995;52.154;4.498;2023-04-01T18:37:42;11.43;;;6.85;;
72413;SDS011;60995;52.154;4.498;2023-04-01T18:46:00;10.35;;;6.93;;
72413;SDS011;60995;52.154;4.498;2023-04-01T18:48:37;12.13;;;7.78;;
72413;SDS011;60995;52.154;4.498;2023-04-01T18:54:08;9.55;;;5.93;;
72413;SDS011;60995;52.154;4.498;2023-04-01T18:56:38;11.25;;;5.63;;
72413;SDS011;60995;52.154;4.498;2023-04-01T19:08:12;11.15;;;6.85;;
72413;SDS011;60995;52.154;4.498;2023-04-01T19:29:34;13.30;;;7.45;;
72413;SDS011;60995;52.154;4.498;2023-04-01T19:32:14;15.07;;;8.73;;
72413;SDS011;60995;52.154;4.498;2023-04-01T19:49:26;14.40;;;9.52;;
72413;SDS011;60995;52.154;4.498;2023-04-01T19:52:12;14.13;;;8.57;;
72413;SDS011;60995;52.154;4.498;2023-04-01T20:00:49;15.02;;;9.55;;
72413;SDS011;60995;52.154;4.498;2023-04-01T20:06:00;15.35;;;10.05;;
72413;SDS011;60995;52.154;4.498;2023-04-01T20:08:33;16.95;;;10.02;;
72413;SDS011;60995;52.154;4.498;2023-04-01T20:11:07;19.42;;;10.52;;
72413;SDS011;60995;52.154;4.498;2023-04-01T20:16:23;21.00;;;10.63;;
72413;SDS011;60995;52.154;4.498;2023-04-01T20:19:06;17.65;;;10.50;;
72413;SDS011;60995;52.154;4.498;2023-04-01T20:21:30;16.67;;;10.15;;
72413;SDS011;60995;52.154;4.498;2023-04-01T20:24:04;18.42;;;10.70;;
72413;SDS011;60995;52.154;4.498;2023-04-01T20:29:47;16.65;;;10.30;;
72413;SDS011;60995;52.154;4.498;2023-04-01T20:32:58;18.00;;;9.75;;
72413;SDS011;60995;52.154;4.498;2023-04-01T20:37:49;16.90;;;9.13;;
72413;SDS011;60995;52.154;4.498;2023-04-01T20:40:40;15.05;;;8.43;;
72413;SDS011;60995;52.154;4.498;2023-04-01T20:43:07;16.92;;;9.73;;
72413;SDS011;60995;52.154;4.498;2023-04-01T20:51:34;17.70;;;11.98;;
72413;SDS011;60995;52.154;4.498;2023-04-01T21:07:41;23.35;;;13.38;;
72413;SDS011;60995;52.154;4.498;2023-04-01T21:15:58;22.55;;;13.18;;
72413;SDS011;60995;52.154;4.498;2023-04-01T21:18:47;22.02;;;13.45;;
72413;SDS011;60995;52.154;4.498;2023-04-01T21:21:26;24.25;;;13.48;;
72413;SDS011;60995;52.154;4.498;2023-04-01T21:29:45;24.45;;;13.00;;
72413;SDS011;60995;52.154;4.498;2023-04-01T21:57:53;17.63;;;10.77;;
72413;SDS011;60995;52.154;4.498;2023-04-01T22:00:39;19.92;;;11.52;;
72413;SDS011;60995;52.154;4.498;2023-04-01T22:08:54;17.15;;;10.30;;
72413;SDS011;60995;52.154;4.498;2023-04-01T22:11:43;19.30;;;10.70;;
72413;SDS011;60995;52.154;4.498;2023-04-01T22:14:45;20.55;;;10.57;;
72413;SDS011;60995;52.154;4.498;2023-04-01T22:23:08;15.52;;;8.90;;
72413;SDS011;60995;52.154;4.498;2023-04-01T22:28:24;15.68;;;9.18;;
72413;SDS011;60995;52.154;4.498;2023-04-01T22:31:23;19.23;;;9.93;;
72413;SDS011;60995;52.154;4.498;2023-04-01T22:39:46;20.13;;;10.60;;
72413;SDS011;60995;52.154;4.498;2023-04-01T22:42:44;20.27;;;12.23;;
72413;SDS011;60995;52.154;4.498;2023-04-01T22:55:32;22.70;;;13.52;;
72413;SDS011;60995;52.154;4.498;2023-04-01T22:58:05;21.25;;;13.60;;
72413;SDS011;60995;52.154;4.498;2023-04-01T23:00:35;21.75;;;13.73;;
72413;SDS011;60995;52.154;4.498;2023-04-01T23:03:08;23.98;;;14.73;;
72413;SDS011;60995;52.154;4.498;2023-04-01T23:05:29;26.45;;;14.20;;
72413;SDS011;60995;52.154;4.498;2023-04-01T23:08:02;23.35;;;13.98;;
72413;SDS011;60995;52.154;4.498;2023-04-01T23:12:57;26.05;;;14.10;;
72413;SDS011;60995;52.154;4.498;2023-04-01T23:15:17;28.92;;;14.25;;
72413;SDS011;60995;52.154;4.498;2023-04-01T23:17:45;23.20;;;13.63;;
72413;SDS011;60995;52.154;4.498;2023-04-01T23:27:59;25.05;;;13.15;;
72413;SDS011;60995;52.154;4.498;2023-04-01T23:32:54;28.25;;;14.45;;
72413;SDS011;60995;52.154;4.498;2023-04-01T23:35:11;22.73;;;13.32;;
72413;SDS011;60995;52.154;4.498;2023-04-01T23:37:32;24.70;;;13.07;;
72413;SDS011;60995;52.154;4.498;2023-04-01T23:39:50;26.17;;;13.65;;
72413;SDS011;60995;52.154;4.498;2023-04-01T23:44:48;26.00;;;13.45;;
72413;SDS011;60995;52.154;4.498;2023-04-01T23:47:14;28.13;;;14.10;;
72413;SDS011;60995;52.154;4.498;2023-04-01T23:49:37;28.02;;;13.80;;
72413;SDS011;60995;52.154;4.498;2023-04-01T23:52:02;30.52;;;13.93;;
72413;SDS011;60995;52.154;4.498;2023-04-01T23:54:29;21.08;;;12.35;;
72413;SDS011;60995;52.154;4.498;2023-04-01T23:56:55;26.42;;;12.23;;
72413;SDS011;60995;52.154;4.498;2023-04-01T23:59:17;24.92;;;13.15;;
